Time;durP1;ratioP1;P1;durP2;ratioP2;P2;SDS_P1;SDS_P2;PMS_P1;PMS_P2;Temp;Humidity;BMP_temperature;BMP_pressure;BME280_temperature;BME280_humidity;BME280_pressure;Samples;Min_cycle;Max_cycle;Signal;HPM_P1;HPM_P2
2022/10/10 00:00:33;;;;;;;16.30;10.77;;;;;;;12.79;73.35;94664.69;5062888;28;20028;-77
2022/10/10 00:02:59;;;;;;;14.27;10.50;;;;;;;12.72;73.49;94663.53;5062666;28;20021;-77
2022/10/10 00:05:24;;;;;;;18.27;10.93;;;;;;;12.68;73.80;94667.91;5062784;28;20100;-77
2022/10/10 00:07:50;;;;;;;14.98;10.73;;;;;;;12.67;73.80;94666.34;5062801;28;20116;-77
2022/10/10 00:10:15;;;;;;;16.65;11.70;;;;;;;12.65;73.92;94675.44;5062772;28;20032;-76
2022/10/10 00:12:40;;;;;;;14.35;11.43;;;;;;;12.60;74.46;94680.94;5062602;28;20397;-77
2022/10/10 00:15:07;;;;;;;16.50;11.43;;;;;;;12.61;74.75;94682.50;5062696;28;20044;-77
2022/10/10 00:17:32;;;;;;;15.13;11.35;;;;;;;12.59;74.74;94676.69;5062593;28;20042;-78
2022/10/10 00:19:58;;;;;;;21.30;11.43;;;;;;;12.56;74.94;94679.97;5062556;28;20021;-77
2022/10/10 00:22:23;;;;;;;14.52;10.82;;;;;;;12.58;74.81;94663.63;5062586;28;20067;-78
2022/10/10 00:24:49;;;;;;;21.10;10.73;;;;;;;12.54;74.92;94666.13;5061252;28;20303;-77
2022/10/10 00:27:14;;;;;;;14.57;11.30;;;;;;;12.55;75.02;94665.00;5062556;28;20021;-77
2022/10/10 00:29:40;;;;;;;18.48;11.15;;;;;;;12.56;74.92;94655.13;5062684;28;20025;-77
2022/10/10 00:32:05;;;;;;;14.98;10.90;;;;;;;12.56;74.68;94655.91;5062467;28;20045;-77
2022/10/10 00:34:31;;;;;;;13.90;10.02;;;;;;;12.52;74.51;94665.63;5062637;28;20025;-77
2022/10/10 00:36:56;;;;;;;15.63;10.18;;;;;;;12.49;74.70;94668.91;5062214;28;20047;-76
2022/10/10 00:39:21;;;;;;;15.82;11.32;;;;;;;12.48;74.65;94669.22;5061586;28;20035;-77
2022/10/10 00:41:47;;;;;;;14.32;10.10;;;;;;;12.47;74.96;94664.97;5062340;28;20390;-77
2022/10/10 00:44:13;;;;;;;17.52;10.65;;;;;;;12.48;74.82;94670.00;5062470;28;20033;-76
2022/10/10 00:46:40;;;;;;;18.38;11.48;;;;;;;12.45;75.20;94673.28;5062469;28;20021;-76
2022/10/10 00:49:11;;;;;;;24.27;11.15;;;;;;;12.44;75.18;94669.03;5062320;28;20067;-77
2022/10/10 00:51:37;;;;;;;17.60;11.10;;;;;;;12.43;75.11;94667.44;5062264;28;20084;-77
2022/10/10 00:54:06;;;;;;;19.05;10.07;;;;;;;12.41;74.95;94669.63;5062007;28;20028;-76
2022/10/10 00:56:46;;;;;;;15.80;9.82;;;;;;;12.29;74.96;94674.75;5062258;28;20017;-77
2022/10/10 00:59:13;;;;;;;14.43;9.45;;;;;;;12.28;74.78;94670.50;5062277;28;20020;-77
2022/10/10 01:01:40;;;;;;;18.35;10.98;;;;;;;12.26;74.98;94675.38;5061028;28;20096;-77
2022/10/10 01:04:06;;;;;;;16.52;12.07;;;;;;;12.23;76.49;94674.88;5060985;28;20615;-77
2022/10/10 01:06:33;;;;;;;18.05;11.95;;;;;;;12.23;76.11;94664.19;5060988;28;20025;-77
2022/10/10 01:08:59;;;;;;;14.82;10.73;;;;;;;12.18;75.82;94680.31;5061063;28;20024;-77
2022/10/10 01:12:06;;;;;;;16.88;9.75;;;;;;;12.13;75.42;94675.13;5064417;28;20021;-77
2022/10/10 01:14:46;;;;;;;12.77;8.23;;;;;;;12.05;75.50;94681.19;5059035;28;20067;-78
2022/10/10 01:17:11;;;;;;;18.65;10.05;;;;;;;11.99;75.51;94680.50;5065856;28;20256;-77
2022/10/10 01:19:54;;;;;;;12.32;9.18;;;;;;;12.00;75.48;94682.06;5065976;28;20027;-78
2022/10/10 01:23:05;;;;;;;15.45;9.23;;;;;;;11.94;75.71;94682.47;5065709;28;20024;-78
2022/10/10 01:25:45;;;;;;;16.10;10.35;;;;;;;11.88;75.85;94676.41;5065718;28;20032;-78
2022/10/10 01:28:44;;;;;;;20.50;11.52;;;;;;;11.88;75.95;94680.97;5065722;28;20025;-77
2022/10/10 01:31:13;;;;;;;15.85;9.73;;;;;;;11.84;76.18;94683.47;5063800;28;20044;-77
2022/10/10 01:34:08;;;;;;;19.95;11.60;;;;;;;11.82;76.20;94680.28;5065671;28;20238;-77
2022/10/10 01:36:36;;;;;;;17.75;10.90;;;;;;;11.76;76.32;94676.94;5065255;28;20027;-76
2022/10/10 01:39:13;;;;;;;20.23;11.63;;;;;;;11.77;76.87;94680.41;5065394;28;20032;-76
2022/10/10 01:41:49;;;;;;;17.85;10.98;;;;;;;11.74;76.84;94679.13;5065472;28;20016;-77
2022/10/10 01:44:15;;;;;;;17.95;11.80;;;;;;;11.73;76.93;94676.78;5065520;28;20051;-76
2022/10/10 01:46:40;;;;;;;14.98;11.13;;;;;;;11.71;76.99;94677.06;5065192;28;20028;-76
2022/10/10 01:49:06;;;;;;;22.55;12.50;;;;;;;11.68;77.06;94663.50;5065300;28;20490;-77
2022/10/10 01:51:47;;;;;;;18.35;11.73;;;;;;;11.72;77.34;94664.50;5065271;28;20270;-77
2022/10/10 01:54:34;;;;;;;18.48;11.40;;;;;;;11.69;77.52;94665.09;5065325;28;20024;-76
2022/10/10 01:57:02;;;;;;;14.55;10.88;;;;;;;11.70;77.57;94667.47;5065227;28;20031;-76
2022/10/10 02:00:05;;;;;;;18.77;12.05;;;;;;;11.71;77.71;94663.72;5065027;28;20198;-76
2022/10/10 02:02:40;;;;;;;17.38;10.48;;;;;;;11.74;77.83;94667.66;5065171;28;20020;-76
2022/10/10 02:05:41;;;;;;;21.23;10.02;;;;;;;11.76;77.38;94660.91;5064865;28;20096;-76
2022/10/10 02:08:14;;;;;;;16.45;10.80;;;;;;;11.74;77.45;94673.00;5064830;28;20028;-77
2022/10/10 02:10:47;;;;;;;14.40;9.80;;;;;;;11.76;77.22;94676.94;5064807;28;20092;-77
2022/10/10 02:13:14;;;;;;;;;;;;;;;11.77;77.12;94677.75;5065508;28;20083;-77
2022/10/10 02:15:52;;;;;;;15.88;10.45;;;;;;;11.72;77.21;94672.50;5064938;28;19911;-77
2022/10/10 02:18:21;;;;;;;21.63;10.90;;;;;;;11.71;77.31;94674.41;5064897;28;20048;-77
2022/10/10 02:20:50;;;;;;;15.82;10.77;;;;;;;11.73;77.19;94688.22;5064713;28;20277;-77
2022/10/10 02:23:18;;;;;;;19.08;10.00;;;;;;;11.74;77.06;94679.13;5064452;28;20060;-79
2022/10/10 02:25:49;;;;;;;17.73;10.32;;;;;;;11.75;76.92;94678.03;5064787;28;20021;-77
2022/10/10 02:28:19;;;;;;;16.63;10.30;;;;;;;11.72;76.96;94680.53;5064865;28;20282;-77
2022/10/10 02:30:49;;;;;;;15.68;9.98;;;;;;;11.71;77.11;94684.28;5064470;28;20287;-77
2022/10/10 02:33:21;;;;;;;18.27;10.98;;;;;;;11.75;77.35;94682.59;5064427;28;20319;-77
2022/10/10 02:35:50;;;;;;;14.43;10.55;;;;;;;11.71;77.25;94676.28;5064414;28;20032;-77
2022/10/10 02:38:17;;;;;;;16.13;10.43;;;;;;;11.66;77.78;94682.50;5064516;28;20100;-77
2022/10/10 02:40:45;;;;;;;15.63;11.90;;;;;;;11.71;77.83;94689.63;5064302;28;20033;-77
2022/10/10 02:43:11;;;;;;;14.95;11.32;;;;;;;11.71;77.89;94681.63;5064223;28;20025;-77
2022/10/10 02:45:39;;;;;;;21.67;12.38;;;;;;;11.75;77.99;94688.72;5064162;28;20039;-77
2022/10/10 02:48:05;;;;;;;18.02;12.55;;;;;;;11.74;78.22;94679.13;5062878;28;20318;-77
2022/10/10 02:50:31;;;;;;;18.85;11.63;;;;;;;11.78;78.27;94674.75;5064145;28;20037;-77
2022/10/10 02:52:57;;;;;;;20.98;12.43;;;;;;;11.79;78.37;94673.69;5064028;28;20033;-77
2022/10/10 02:55:23;;;;;;;20.33;11.88;;;;;;;11.81;77.91;94682.19;5064099;28;20032;-78
2022/10/10 02:57:48;;;;;;;18.92;11.60;;;;;;;11.81;77.58;94678.72;5063844;28;20025;-77
2022/10/10 03:00:14;;;;;;;20.92;11.23;;;;;;;11.78;77.58;94688.13;5064000;28;20020;-77
2022/10/10 03:02:40;;;;;;;17.00;11.07;;;;;;;11.76;77.34;94681.50;5063835;28;20036;-77
2022/10/10 03:05:06;;;;;;;19.02;12.65;;;;;;;11.71;77.44;94678.94;5063678;28;20025;-77
2022/10/10 03:07:31;;;;;;;19.05;11.90;;;;;;;11.61;77.71;94696.75;5063823;28;20025;-77
2022/10/10 03:09:57;;;;;;;19.48;11.90;;;;;;;11.58;77.91;94689.34;5063801;28;20307;-77
2022/10/10 03:12:22;;;;;;;21.85;12.07;;;;;;;11.53;78.29;94683.31;5063762;28;20102;-77
2022/10/10 03:14:48;;;;;;;19.30;12.60;;;;;;;11.53;78.15;94688.66;5063666;28;20071;-78
2022/10/10 03:17:13;;;;;;;19.98;12.30;;;;;;;11.50;78.27;94681.22;5063843;28;20056;-78
2022/10/10 03:19:39;;;;;;;20.00;12.20;;;;;;;11.47;78.23;94689.84;5063381;28;20028;-77
2022/10/10 03:22:04;;;;;;;18.98;13.35;;;;;;;11.43;78.05;94685.09;5062301;28;20068;-78
2022/10/10 03:24:30;;;;;;;21.85;13.40;;;;;;;11.39;78.31;94686.78;5061600;28;20040;-77
2022/10/10 03:26:55;;;;;;;19.02;12.63;;;;;;;11.39;78.33;94684.13;5062514;28;20025;-77
2022/10/10 03:29:21;;;;;;;17.08;12.38;;;;;;;11.38;78.08;94690.56;5062877;28;20029;-76
2022/10/10 03:31:46;;;;;;;17.38;12.60;;;;;;;11.38;78.23;94695.88;5062336;28;20016;-77
2022/10/10 03:34:12;;;;;;;19.30;12.75;;;;;;;11.34;78.11;94694.91;5062819;28;20054;-76
2022/10/10 03:36:37;;;;;;;17.05;12.40;;;;;;;11.28;78.16;94692.63;5063164;28;20059;-75
2022/10/10 03:39:03;;;;;;;15.20;12.23;;;;;;;11.26;78.15;94695.59;5063347;28;20040;-76
2022/10/10 03:41:29;;;;;;;19.45;12.27;;;;;;;11.22;77.94;94689.28;5063207;28;20310;-76
2022/10/10 03:43:56;;;;;;;18.45;13.57;;;;;;;11.17;77.87;94694.69;5062885;28;20044;-78
2022/10/10 03:46:21;;;;;;;21.63;13.75;;;;;;;11.14;78.31;94696.06;5062695;28;20035;-78
2022/10/10 03:48:47;;;;;;;24.67;13.80;;;;;;;11.11;78.58;94693.19;5062882;28;20020;-78
2022/10/10 03:51:12;;;;;;;22.33;14.68;;;;;;;11.07;78.52;94697.53;5063007;28;20043;-78
2022/10/10 03:53:38;;;;;;;23.67;14.90;;;;;;;11.03;78.70;94698.16;5062851;28;20032;-77
2022/10/10 03:56:04;;;;;;;23.65;14.70;;;;;;;10.98;78.80;94700.13;5063023;28;20041;-78
2022/10/10 03:58:29;;;;;;;23.13;14.23;;;;;;;10.99;79.06;94685.69;5063019;28;20204;-78
2022/10/10 04:00:59;;;;;;;22.83;13.70;;;;;;;10.94;79.41;94693.78;5061675;28;20033;-78
2022/10/10 04:03:25;;;;;;;22.13;13.98;;;;;;;10.85;79.64;94707.00;5062896;28;20024;-78
2022/10/10 04:05:51;;;;;;;24.85;13.07;;;;;;;10.84;79.63;94695.53;5063007;28;20020;-78
2022/10/10 04:08:17;;;;;;;26.17;14.27;;;;;;;10.78;79.92;94696.72;5062955;28;20095;-78
2022/10/10 04:10:43;;;;;;;20.00;13.57;;;;;;;10.80;80.16;94693.75;5062635;28;20021;-78
2022/10/10 04:13:09;;;;;;;22.80;13.52;;;;;;;10.74;79.35;94694.94;5062800;28;20211;-78
2022/10/10 04:15:34;;;;;;;19.55;13.60;;;;;;;10.72;80.01;94713.09;5062720;28;20382;-78
2022/10/10 04:18:00;;;;;;;17.38;11.85;;;;;;;10.64;79.59;94709.22;5061458;28;20017;-78
2022/10/10 04:20:26;;;;;;;25.10;13.18;;;;;;;10.61;79.38;94707.94;5062706;28;20249;-78
2022/10/10 04:22:51;;;;;;;23.05;14.48;;;;;;;10.54;79.95;94706.72;5062503;28;20021;-79
2022/10/10 04:25:17;;;;;;;25.60;16.25;;;;;;;10.50;80.65;94706.53;5062664;28;20108;-78
2022/10/10 04:27:42;;;;;;;24.10;13.68;;;;;;;10.48;80.53;94706.00;5062555;28;20215;-78
2022/10/10 04:30:09;;;;;;;22.60;14.05;;;;;;;10.48;80.12;94707.88;5062636;28;20275;-79
2022/10/10 04:32:35;;;;;;;24.00;16.58;;;;;;;10.47;80.75;94701.00;5062407;28;20092;-79
2022/10/10 04:35:01;;;;;;;27.98;16.17;;;;;;;10.51;81.22;94707.31;5062582;28;20013;-78
2022/10/10 04:37:27;;;;;;;29.73;16.73;;;;;;;10.51;81.38;94708.09;5060890;28;20021;-79
2022/10/10 04:39:52;;;;;;;23.98;14.88;;;;;;;10.53;80.95;94702.50;5061509;28;20029;-79
2022/10/10 04:42:17;;;;;;;24.85;16.20;;;;;;;10.53;80.18;94699.81;5062064;28;20036;-79
2022/10/10 04:44:43;;;;;;;26.42;14.95;;;;;;;10.53;79.93;94699.81;5061526;28;20384;-79
2022/10/10 04:47:08;;;;;;;29.60;14.45;;;;;;;10.53;79.88;94705.94;5065576;28;20025;-78
2022/10/10 04:49:34;;;;;;;22.95;14.93;;;;;;;10.54;79.96;94704.88;5066524;28;20025;-78
2022/10/10 04:51:59;;;;;;;22.38;15.40;;;;;;;10.56;79.79;94710.69;5066488;28;20092;-78
2022/10/10 04:54:25;;;;;;;22.30;14.77;;;;;;;10.59;79.47;94712.78;5065609;28;20017;-78
2022/10/10 04:56:50;;;;;;;29.67;16.67;;;;;;;10.62;79.47;94714.88;5066218;28;20315;-78
2022/10/10 04:59:16;;;;;;;25.30;13.43;;;;;;;10.62;79.49;94712.19;5066403;28;20036;-78
2022/10/10 05:01:41;;;;;;;28.13;14.98;;;;;;;10.69;79.21;94716.38;5065386;28;20025;-77
2022/10/10 05:04:06;;;;;;;28.63;14.40;;;;;;;10.69;79.33;94714.47;5065931;28;20029;-77
2022/10/10 05:06:32;;;;;;;32.13;15.15;;;;;;;10.74;79.26;94713.59;5066052;28;20020;-78
2022/10/10 05:08:57;;;;;;;32.10;15.50;;;;;;;10.78;79.52;94723.38;5066127;28;20021;-77
2022/10/10 05:11:23;;;;;;;31.92;15.68;;;;;;;10.84;79.61;94721.41;5065947;28;20047;-78
2022/10/10 05:13:51;;;;;;;25.98;17.13;;;;;;;10.86;79.60;94719.25;5065967;28;20031;-78
2022/10/10 05:16:17;;;;;;;27.98;17.00;;;;;;;10.94;79.47;94723.13;5066121;28;20029;-78
2022/10/10 05:18:42;;;;;;;29.98;17.58;;;;;;;11.01;79.47;94721.66;5065642;28;20028;-78
2022/10/10 05:21:10;;;;;;;31.33;18.52;;;;;;;11.08;80.09;94725.81;5065837;28;20033;-78
2022/10/10 05:23:37;;;;;;;30.15;17.77;;;;;;;11.12;80.04;94732.16;5065533;28;20386;-78
2022/10/10 05:26:03;;;;;;;31.77;16.80;;;;;;;11.15;79.82;94728.88;5065240;28;20021;-78
2022/10/10 05:28:28;;;;;;;34.10;18.60;;;;;;;11.15;79.89;94732.34;5064499;28;20028;-78
2022/10/10 05:30:54;;;;;;;30.42;16.02;;;;;;;11.16;79.87;94733.16;5064163;28;20040;-78
2022/10/10 05:33:19;;;;;;;31.55;17.75;;;;;;;11.17;80.06;94735.53;5065333;28;20313;-78
2022/10/10 05:35:45;;;;;;;29.95;16.38;;;;;;;11.17;80.21;94740.03;5064617;28;20036;-77
2022/10/10 05:38:10;;;;;;;29.98;17.20;;;;;;;11.18;80.27;94744.31;5063894;28;20271;-78
2022/10/10 05:40:41;;;;;;;27.73;16.80;;;;;;;11.15;80.22;94755.56;5065482;28;20029;-78
2022/10/10 05:43:06;;;;;;;31.25;16.67;;;;;;;11.15;80.60;94751.00;5064458;28;20025;-78
2022/10/10 05:45:32;;;;;;;36.80;17.58;;;;;;;11.26;80.79;94753.53;5065022;28;20147;-78
2022/10/10 05:47:57;;;;;;;38.08;18.80;;;;;;;11.31;80.32;94746.19;5064916;28;20056;-78
2022/10/10 05:50:38;;;;;;;33.55;20.08;;;;;;;11.40;79.98;94755.09;5064985;28;20020;-78
2022/10/10 05:53:03;;;;;;;33.53;19.38;;;;;;;11.44;79.91;94756.09;5064222;28;20025;-78
2022/10/10 05:55:29;;;;;;;38.88;19.65;;;;;;;11.53;79.69;94758.06;5064940;28;20090;-78
2022/10/10 05:57:54;;;;;;;32.67;19.55;;;;;;;11.59;79.25;94757.66;5064882;28;20028;-78
2022/10/10 06:00:20;;;;;;;37.58;20.05;;;;;;;11.71;78.83;94759.84;5065062;28;20187;-77
2022/10/10 06:02:45;;;;;;;35.65;20.00;;;;;;;11.79;78.50;94756.47;5065010;28;20226;-77
2022/10/10 06:05:11;;;;;;;32.97;20.20;;;;;;;11.84;78.44;94769.75;5065047;28;20040;-77
2022/10/10 06:07:36;;;;;;;34.20;21.50;;;;;;;11.96;78.27;94774.59;5065047;28;20051;-78
2022/10/10 06:10:03;;;;;;;37.85;21.40;;;;;;;12.07;77.93;94767.16;5064499;28;20032;-77
2022/10/10 06:12:29;;;;;;;31.90;19.80;;;;;;;12.17;77.14;94776.81;5064981;28;20087;-78
2022/10/10 06:14:54;;;;;;;44.28;21.90;;;;;;;12.27;76.70;94775.81;5064931;28;20365;-78
2022/10/10 06:17:20;;;;;;;50.30;22.55;;;;;;;12.30;76.97;94772.56;5064511;28;20029;-77
2022/10/10 06:19:45;;;;;;;38.88;23.45;;;;;;;12.39;76.84;94781.44;5064823;28;20082;-78
2022/10/10 06:22:11;;;;;;;35.90;22.42;;;;;;;12.48;76.46;94770.84;5064647;28;20265;-77
2022/10/10 06:24:36;;;;;;;40.53;22.40;;;;;;;12.60;76.18;94771.88;5064104;28;20287;-76
2022/10/10 06:27:02;;;;;;;39.78;23.10;;;;;;;12.74;76.15;94785.19;5064580;28;20056;-77
2022/10/10 06:29:27;;;;;;;44.47;21.25;;;;;;;12.81;75.78;94779.41;5063463;28;20092;-77
2022/10/10 06:31:52;;;;;;;45.50;22.85;;;;;;;12.94;75.25;94791.13;5064309;28;20326;-78
2022/10/10 06:34:18;;;;;;;44.15;22.48;;;;;;;13.02;75.32;94772.44;5064434;28;20028;-77
2022/10/10 06:36:43;;;;;;;34.47;20.42;;;;;;;13.11;75.03;94783.22;5064614;28;20358;-77
2022/10/10 06:39:09;;;;;;;26.00;18.25;;;;;;;13.19;74.48;94787.84;5064324;28;20029;-77
2022/10/10 06:41:34;;;;;;;29.92;16.13;;;;;;;13.37;73.40;94787.94;5064486;28;20024;-76
2022/10/10 06:44:00;;;;;;;29.20;15.77;;;;;;;13.56;72.65;94787.75;5064111;28;20028;-76
2022/10/10 06:46:25;;;;;;;23.20;16.08;;;;;;;13.74;71.89;94791.25;5064327;28;20028;-72
2022/10/10 06:48:51;;;;;;;25.40;15.95;;;;;;;13.82;71.35;94791.31;5064366;28;20080;-72
2022/10/10 06:51:17;;;;;;;36.85;17.27;;;;;;;13.92;70.19;94792.09;5064247;28;20395;-72
2022/10/10 06:53:43;;;;;;;24.55;15.73;;;;;;;14.11;70.07;94798.00;5063931;28;20044;-73
2022/10/10 06:56:19;;;;;;;23.38;14.18;;;;;;;14.25;68.54;94797.88;5064255;28;20215;-74
2022/10/10 06:58:46;;;;;;;21.52;12.95;;;;;;;14.38;67.24;94798.84;5063807;28;20044;-74
2022/10/10 07:01:20;;;;;;;22.23;13.40;;;;;;;14.53;66.97;94801.06;5063821;28;20067;-76
2022/10/10 07:03:46;;;;;;;22.40;14.18;;;;;;;14.67;66.77;94790.19;5063812;28;20097;-76
2022/10/10 07:06:12;;;;;;;23.23;14.77;;;;;;;14.80;66.76;94791.16;5063555;28;20523;-74
2022/10/10 07:08:39;;;;;;;27.77;14.20;;;;;;;14.97;65.96;94791.13;5062951;28;20025;-74
2022/10/10 07:11:06;;;;;;;32.90;14.45;;;;;;;14.99;64.94;94794.28;5063514;28;20024;-74
2022/10/10 07:13:32;;;;;;;30.15;13.82;;;;;;;15.05;66.13;94790.34;5063486;28;20088;-75
2022/10/10 07:15:58;;;;;;;21.98;13.63;;;;;;;15.14;65.42;94794.91;5063277;28;20078;-75
2022/10/10 07:18:23;;;;;;;21.10;13.43;;;;;;;15.14;65.21;94787.66;5063484;28;20032;-76
2022/10/10 07:20:49;;;;;;;25.95;12.30;;;;;;;15.22;64.94;94786.84;5063658;28;20330;-76
2022/10/10 07:23:14;;;;;;;20.83;11.57;;;;;;;15.32;64.24;94785.69;5063210;28;20044;-79
2022/10/10 07:25:41;;;;;;;18.23;11.43;;;;;;;15.42;64.97;94785.34;5063456;28;20037;-80
2022/10/10 07:28:08;;;;;;;23.23;11.40;;;;;;;15.60;63.62;94790.69;5063656;28;20151;-78
2022/10/10 07:30:39;;;;;;;33.92;14.63;;;;;;;15.71;62.51;94783.03;5063456;28;20028;-81
2022/10/10 07:33:05;;;;;;;28.75;14.18;;;;;;;15.77;62.70;94785.28;5063664;28;20035;-82
2022/10/10 07:35:30;;;;;;;30.60;14.15;;;;;;;15.77;62.54;94787.97;5063627;28;20218;-82
2022/10/10 07:37:56;;;;;;;28.95;12.60;;;;;;;15.85;62.47;94783.63;5063818;28;20025;-82
2022/10/10 07:40:22;;;;;;;30.35;11.57;;;;;;;15.93;62.27;94790.88;5065644;28;20021;-81
2022/10/10 07:42:48;;;;;;;20.83;11.77;;;;;;;16.04;61.50;94785.94;5064081;28;20032;-84
2022/10/10 07:45:13;;;;;;;23.02;13.35;;;;;;;16.18;61.68;94777.59;5063426;28;20219;-86
2022/10/10 07:47:39;;;;;;;31.05;13.60;;;;;;;16.27;62.12;94778.34;5063140;28;20024;-82
2022/10/10 07:50:06;;;;;;;24.27;12.20;;;;;;;16.37;61.69;94775.28;5063165;28;20263;-81
2022/10/10 07:52:33;;;;;;;25.10;11.23;;;;;;;16.50;60.75;94776.13;5063155;28;20032;-80
2022/10/10 07:54:58;;;;;;;24.90;13.82;;;;;;;16.64;60.09;94775.88;5062675;28;20223;-83
2022/10/10 07:57:24;;;;;;;27.75;14.50;;;;;;;16.74;59.84;94774.69;5063227;28;20021;-84
2022/10/10 07:59:49;;;;;;;32.88;16.00;;;;;;;16.83;59.37;94770.84;5063219;28;20021;-81
2022/10/10 08:02:15;;;;;;;30.13;15.57;;;;;;;16.93;58.89;94769.63;5062924;28;20029;-80
2022/10/10 08:04:40;;;;;;;22.10;14.85;;;;;;;17.01;59.26;94771.47;5062942;28;20392;-78
2022/10/10 08:07:06;;;;;;;31.17;14.13;;;;;;;17.07;59.17;94763.19;5062899;28;20092;-81
2022/10/10 08:09:31;;;;;;;30.45;15.73;;;;;;;17.16;58.67;94766.59;5062771;28;20290;-79
2022/10/10 08:11:57;;;;;;;24.70;13.45;;;;;;;17.25;58.18;94764.59;5062773;28;20051;-80
2022/10/10 08:14:22;;;;;;;21.35;12.27;;;;;;;17.27;57.57;94767.72;5062767;28;20047;-80
2022/10/10 08:16:47;;;;;;;26.80;10.75;;;;;;;17.42;57.11;94764.41;5063064;28;20090;-80
2022/10/10 08:19:13;;;;;;;22.67;10.75;;;;;;;17.48;56.44;94764.19;5062503;28;20040;-81
2022/10/10 08:21:38;;;;;;;32.45;11.63;;;;;;;17.64;55.57;94762.41;5062735;28;20271;-85
2022/10/10 08:24:04;;;;;;;30.38;12.20;;;;;;;17.75;55.29;94755.47;5062724;28;20050;-81
2022/10/10 08:26:29;;;;;;;25.33;11.55;;;;;;;17.91;55.35;94762.88;5062443;28;20033;-80
2022/10/10 08:28:55;;;;;;;20.00;10.40;;;;;;;18.07;54.61;94758.38;5062744;28;20035;-81
2022/10/10 08:31:21;;;;;;;17.30;9.52;;;;;;;18.09;54.52;94758.84;5062965;28;20311;-79
2022/10/10 08:33:48;;;;;;;26.05;10.02;;;;;;;18.19;54.29;94752.19;5063302;28;20319;-78
2022/10/10 08:36:22;;;;;;;18.85;7.43;;;;;;;18.13;53.31;94756.25;5063113;28;20021;-79
2022/10/10 08:38:47;;;;;;;14.35;6.85;;;;;;;18.31;52.64;94752.19;5061973;28;20021;-78
2022/10/10 08:41:25;;;;;;;11.73;5.63;;;;;;;18.51;51.45;94763.94;5062865;28;20037;-81
2022/10/10 08:43:56;;;;;;;9.57;5.00;;;;;;;18.61;51.07;94758.06;5062985;28;20024;-78
2022/10/10 08:46:51;;;;;;;14.70;6.03;;;;;;;18.81;50.51;94766.38;5063414;28;20051;-79
2022/10/10 08:49:19;;;;;;;13.10;5.97;;;;;;;18.92;50.60;94766.66;5043316;28;20108;-79
2022/10/10 08:51:50;;;;;;;18.48;5.75;;;;;;;18.93;49.67;94760.94;5062365;28;20025;-77
2022/10/10 08:54:18;;;;;;;13.75;6.22;;;;;;;18.96;49.76;94776.44;5062514;28;20020;-76
2022/10/10 08:56:43;;;;;;;12.98;5.60;;;;;;;19.04;49.97;94767.41;5062306;28;20083;-76
2022/10/10 08:59:16;;;;;;;15.10;6.63;;;;;;;19.04;49.06;94764.69;5062487;28;20021;-76
2022/10/10 09:01:42;;;;;;;15.48;5.95;;;;;;;19.07;49.62;94778.66;5062360;28;20056;-79
2022/10/10 09:04:15;;;;;;;16.35;5.38;;;;;;;19.15;49.29;94766.91;5062828;28;20028;-79
2022/10/10 09:06:53;;;;;;;12.80;5.50;;;;;;;19.27;49.43;94782.28;5063546;28;20303;-80
2022/10/10 09:09:36;;;;;;;12.23;5.60;;;;;;;19.39;48.54;94776.81;5064105;28;20020;-82
2022/10/10 09:12:21;;;;;;;11.10;6.20;;;;;;;19.44;48.45;94781.97;5062376;28;20025;-77
2022/10/10 09:15:09;;;;;;;12.68;7.50;;;;;;;19.48;48.51;94773.94;5063037;28;20019;-77
2022/10/10 09:17:48;;;;;;;13.55;6.03;;;;;;;19.50;48.47;94780.59;5062506;28;20025;-77
2022/10/10 09:20:22;;;;;;;13.93;5.90;;;;;;;19.49;47.89;94783.63;5062096;28;20033;-76
2022/10/10 09:23:24;;;;;;;16.17;6.13;;;;;;;19.54;48.11;94791.47;5060884;28;20318;-77
2022/10/10 09:26:01;;;;;;;16.93;5.10;;;;;;;19.63;47.72;94789.41;5054035;28;20273;-76
2022/10/10 09:28:48;;;;;;;12.35;5.47;;;;;;;19.62;47.55;94787.81;5062180;28;20017;-76
2022/10/10 09:31:30;;;;;;;11.52;5.20;;;;;;;19.69;48.05;94788.00;5062819;28;20033;-76
2022/10/10 09:34:05;;;;;;;7.63;5.00;;;;;;;19.79;47.87;94792.91;5065627;28;20024;-76
2022/10/10 09:36:35;;;;;;;12.43;5.35;;;;;;;19.91;46.74;94796.69;5065562;28;20025;-76
2022/10/10 09:39:35;;;;;;;19.08;5.55;;;;;;;19.94;46.82;94791.34;5065467;28;20029;-77
2022/10/10 09:42:03;;;;;;;17.85;5.38;;;;;;;19.97;46.48;94792.59;5064099;28;20048;-76
2022/10/10 09:44:31;;;;;;;9.38;5.22;;;;;;;19.92;46.75;94796.31;5065183;28;20032;-76
2022/10/10 09:46:59;;;;;;;10.10;5.20;;;;;;;19.94;45.76;94791.34;5065491;28;20116;-76
2022/10/10 09:49:24;;;;;;;12.20;5.30;;;;;;;19.84;45.61;94789.97;5065552;28;20044;-76
2022/10/10 09:51:50;;;;;;;13.45;4.85;;;;;;;19.84;45.78;94800.78;5065458;28;20036;-77
2022/10/10 09:54:18;;;;;;;12.15;4.43;;;;;;;19.88;45.79;94791.97;5065267;28;20021;-76
2022/10/10 09:56:55;;;;;;;15.98;6.22;;;;;;;19.90;45.87;94790.47;5065143;28;20597;-76
2022/10/10 09:59:43;;;;;;;12.30;5.03;;;;;;;19.96;45.67;94799.13;5065263;28;20326;-78
2022/10/10 10:02:25;;;;;;;13.57;5.43;;;;;;;20.02;45.80;94789.59;5065098;28;20318;-78
2022/10/10 10:04:54;;;;;;;9.63;4.25;;;;;;;20.07;45.71;94786.66;5065439;28;20245;-77
2022/10/10 10:07:33;;;;;;;5.97;4.43;;;;;;;20.14;45.39;94780.59;5065215;28;20446;-77
2022/10/10 10:10:01;;;;;;;7.22;4.28;;;;;;;20.11;45.20;94782.09;5063808;28;20039;-77
2022/10/10 10:12:39;;;;;;;7.05;4.20;;;;;;;20.03;45.06;94785.78;5064835;28;20025;-78
2022/10/10 10:15:15;;;;;;;13.45;4.30;;;;;;;20.02;45.46;94784.19;5065073;28;20100;-78
2022/10/10 10:17:41;;;;;;;11.40;5.07;;;;;;;20.03;45.57;94783.84;5064999;28;20307;-79
2022/10/10 10:20:30;;;;;;;12.18;5.10;;;;;;;20.02;45.34;94773.38;5064803;28;20051;-78
2022/10/10 10:22:55;;;;;;;10.73;4.57;;;;;;;20.03;45.43;94774.94;5064725;28;20345;-78
2022/10/10 10:25:35;;;;;;;7.68;4.40;;;;;;;20.06;45.27;94782.34;5064801;28;20025;-79
2022/10/10 10:28:10;;;;;;;12.98;5.00;;;;;;;20.06;45.17;94776.16;5064853;28;20021;-78
2022/10/10 10:30:37;;;;;;;7.18;3.70;;;;;;;20.06;44.80;94779.66;5064799;28;20103;-79
2022/10/10 10:33:13;;;;;;;8.32;4.15;;;;;;;20.10;45.09;94772.41;5065012;28;20025;-78
2022/10/10 10:35:55;;;;;;;12.25;5.35;;;;;;;20.11;45.19;94771.28;5064645;28;20058;-78
2022/10/10 10:38:38;;;;;;;9.38;4.90;;;;;;;20.08;44.80;94777.38;5065137;28;20115;-79
2022/10/10 10:41:23;;;;;;;7.32;4.50;;;;;;;20.04;44.73;94776.50;5064856;28;20031;-79
2022/10/10 10:43:51;;;;;;;9.88;4.47;;;;;;;20.04;45.08;94765.69;5063916;28;20078;-76
2022/10/10 10:46:30;;;;;;;7.28;4.90;;;;;;;20.07;45.00;94767.69;5064101;28;20033;-78
2022/10/10 10:49:13;;;;;;;9.98;4.53;;;;;;;20.03;45.03;94770.31;5064201;28;20319;-78
2022/10/10 10:51:47;;;;;;;17.48;5.25;;;;;;;19.98;45.10;94772.50;5064267;28;20297;-78
2022/10/10 10:54:34;;;;;;;9.88;4.75;;;;;;;19.93;45.16;94775.47;5062601;28;20025;-77
2022/10/10 10:57:12;;;;;;;11.40;4.10;;;;;;;19.83;45.11;94764.03;5063792;28;20045;-77
2022/10/10 11:00:09;;;;;;;10.30;4.35;;;;;;;19.79;45.60;94759.69;5063936;28;20028;-77
2022/10/10 11:02:37;;;;;;;8.70;4.97;;;;;;;19.75;45.70;94756.13;5063712;28;20060;-78
2022/10/10 11:05:30;;;;;;;11.27;6.45;;;;;;;19.73;45.73;94751.03;5063621;28;20029;-77
2022/10/10 11:08:07;;;;;;;6.28;4.25;;;;;;;19.70;46.09;94746.31;5063666;28;20025;-77
2022/10/10 11:10:51;;;;;;;10.45;4.47;;;;;;;19.75;45.50;94740.66;5063875;28;20066;-78
2022/10/10 11:13:22;;;;;;;20.05;4.75;;;;;;;19.76;46.07;94738.72;5063485;28;20025;-76
2022/10/10 11:15:58;;;;;;;9.57;4.53;;;;;;;19.79;45.73;94735.34;5063519;28;20025;-77
2022/10/10 11:18:35;;;;;;;9.98;4.75;;;;;;;19.89;45.49;94736.75;5063670;28;20025;-77
2022/10/10 11:21:06;;;;;;;13.27;4.95;;;;;;;19.90;45.65;94733.66;5063286;28;20033;-77
2022/10/10 11:23:40;;;;;;;11.40;4.50;;;;;;;19.93;45.75;94734.91;5063415;28;20313;-78
2022/10/10 11:26:27;;;;;;;10.13;4.68;;;;;;;19.98;45.83;94734.63;5063454;28;20035;-79
2022/10/10 11:29:01;;;;;;;10.75;5.05;;;;;;;20.05;45.75;94737.50;5063387;28;20040;-79
2022/10/10 11:31:39;;;;;;;14.27;4.85;;;;;;;20.13;45.87;94730.31;5063521;28;20025;-81